Kowloon Bay — D5EZ6 — position and weather

sailwx.info

Track history (hours):
 
Tides and Currents Weather Stations Pressure Air Temp Water Temp Dewpoint Dewpoint Depression Visibility Wind Speed Wind Dir Waves Ship Positions

Kowloon Bay

Last reported at 2018-Jun-28 07:37 UTC. Time now 2018-Jul-23 00:22 UTC.
Position N 23°14' E 117°29'.
Warning: this ship's position is 24 days out of date.

Length 293 m; draft 10.5 m.

Type: Cargo ship. MMSI: 636016204.

Date/timePositionNaut miles runAvg speedWind from/ knotsBaromVisibWave heightAir tempDewpointWater temp
2018-Jun-28 07:37N 23°14' E 117°29'318.7
2018-Jun-28 07:29N 23°16' E 117°31'918.9
2018-Jun-28 07:00N 23°22' E 117°38'1019.2
2018-Jun-28 06:29N 23°30' E 117°44'918.6
2018-Jun-28 06:00N 23°36' E 117°52'918.8
2018-Jun-28 05:30N 23°43' E 117°59'918.5
2018-Jun-28 05:00N 23°49' E 118°06'1019.0
2018-Jun-28 04:30N 23°57' E 118°12'918.4
2018-Jun-28 04:00N 24°04' E 118°19'815.8
2018-Jun-28 03:30N 24°12' E 118°18'713.7
2018-Jun-28 03:00N 24°17' E 118°13'612.0
2018-Jun-28 02:30N 24°21' E 118°09'510.0
2018-Jun-28 02:00N 24°25' E 118°05'5 9.3
2018-Jun-28 01:30N 24°29' E 118°04'2 3.5
2018-Jun-28 00:58N 24°31' E 118°05'0 0.0
2018-Jun-28 00:28N 24°31' E 118°05'0 0.0
2018-Jun-27 23:58N 24°31' E 118°05'0 0.0
2018-Jun-27 23:28N 24°31' E 118°05'0 0.0
2018-Jun-27 22:55N 24°31' E 118°05'0 0.0
2018-Jun-27 22:28N 24°31' E 118°05'0 0.0
2018-Jun-27 21:58N 24°31' E 118°05'0 0.0
2018-Jun-27 21:28N 24°31' E 118°05'0 0.0
2018-Jun-27 20:58N 24°31' E 118°05'0 0.0
2018-Jun-27 20:28N 24°31' E 118°05'0 0.0
2018-Jun-27 19:55N 24°31' E 118°05'0 0.0
2018-Jun-27 19:28N 24°31' E 118°05'0 0.0
2018-Jun-27 18:58N 24°31' E 118°05'0 0.1
2018-Jun-27 18:28N 24°31' E 118°05'0 0.1
2018-Jun-27 17:58N 24°31' E 118°05'0 0.0
2018-Jun-27 17:28N 24°31' E 118°05'0 0.3
2018-Jun-27 17:00N 24°31' E 118°05'2 4.8
2018-Jun-27 16:30N 24°29' E 118°04'510.3
2018-Jun-27 16:00N 24°24' E 118°06'611.3
2018-Jun-27 15:30N 24°20' E 118°10'5 9.1
2018-Jun-27 15:01N 24°17' E 118°14'5 9.9
2018-Jun-27 14:30N 24°13' E 118°17'4 7.9
2018-Jun-27 14:00N 24°11' E 118°21'2 4.9
2018-Jun-27 13:30N 24°13' E 118°23'1 1.3
2018-Jun-27 13:00N 24°12' E 118°23'0 0.6
2018-Jun-27 12:30N 24°12' E 118°23'1 1.9
2018-Jun-27 12:00N 24°12' E 118°24'0 0.8
2018-Jun-27 11:30N 24°12' E 118°24'4 8.6
2018-Jun-27 11:00N 24°13' E 118°28'2 4.6
2018-Jun-27 10:30N 24°14' E 118°30'1 2.6
2018-Jun-27 10:00N 24°13' E 118°29'1 2.3
2018-Jun-27 09:30N 24°12' E 118°28'1 2.0
2018-Jun-27 08:58N 24°12' E 118°28'1 2.0
2018-Jun-27 08:30N 24°11' E 118°27'1 1.7
2018-Jun-27 08:01N 24°11' E 118°26'1 1.7
2018-Jun-27 07:30N 24°10' E 118°25'1 1.3
2018-Jun-27 07:00N 24°10' E 118°24'0 0.9
2018-Jun-27 06:30N 24°10' E 118°24'0 0.7
2018-Jun-27 06:00N 24°10' E 118°23'1 1.0
2018-Jun-27 05:31N 24°11' E 118°23'0 1.0
2018-Jun-27 05:00N 24°11' E 118°23'0 0.4
2018-Jun-27 04:30N 24°11' E 118°22'0 0.4
2018-Jun-27 04:00N 24°11' E 118°22'0 0.2
2018-Jun-27 03:30N 24°10' E 118°22'1 1.0
2018-Jun-27 03:00N 24°11' E 118°23'2 4.3
2018-Jun-27 02:30N 24°09' E 118°24'612.0
2018-Jun-27 02:00N 24°04' E 118°27'612.0
2018-Jun-27 01:30N 23°59' E 118°31'611.9
2018-Jun-27 01:00N 23°55' E 118°36'611.2
2018-Jun-27 00:30N 23°51' E 118°40'611.2
2018-Jun-27 00:00N 23°48' E 118°45'8811.6
2018-Jun-26 16:26N 22°48' E 119°55'611.4
2018-Jun-26 15:52N 22°44' E 120°01'411.0
2018-Jun-26 15:30N 22°42' E 120°04'510.9
2018-Jun-26 15:00N 22°38' E 120°09'510.7
2018-Jun-26 14:30N 22°34' E 120°12'510.2
2018-Jun-26 14:00N 22°33' E 120°18'2 3.0
2018-Jun-26 13:30N 22°34' E 120°19'0 0.0
2018-Jun-26 12:25N 22°34' E 120°19'0 0.0
2018-Jun-26 11:53N 22°34' E 120°19'0 0.0
2018-Jun-26 11:27N 22°34' E 120°19'0 0.0
2018-Jun-26 10:57N 22°34' E 120°19'0 0.0
2018-Jun-26 10:27N 22°34' E 120°19'0 0.0
2018-Jun-26 09:57N 22°34' E 120°19'0 0.0
2018-Jun-26 09:27N 22°34' E 120°19'0 0.0
2018-Jun-26 08:57N 22°34' E 120°19'0 0.0
2018-Jun-26 08:15N 22°34' E 120°19'0 0.0
2018-Jun-26 07:57N 22°34' E 120°19'0 0.0
2018-Jun-26 07:21N 22°34' E 120°19'0 0.0
2018-Jun-26 06:57N 22°34' E 120°19'0 0.0
2018-Jun-26 06:03N 22°34' E 120°19'0 0.0
2018-Jun-26 05:57N 22°34' E 120°19'0 0.0
2018-Jun-26 05:27N 22°34' E 120°19'0 0.0
2018-Jun-26 04:57N 22°34' E 120°19'0 1.0
2018-Jun-26 04:30N 22°33' E 120°19'3 6.6
2018-Jun-26 04:00N 22°33' E 120°16'4 7.8
2018-Jun-26 03:30N 22°32' E 120°11'3 6.2
2018-Jun-26 03:00N 22°29' E 120°09'3 5.6
2018-Jun-26 02:30N 22°27' E 120°08'5 9.3
2018-Jun-26 02:00N 22°22' E 120°07'5 9.8
2018-Jun-26 01:29N 22°17' E 120°07'510.3
2018-Jun-26 01:00N 22°12' E 120°08'610.5
2018-Jun-26 00:27N 22°08' E 120°12'  
Track history (hours):
 
Tides and Currents Weather Stations Pressure Air Temp Water Temp Dewpoint Dewpoint Depression Visibility Wind Speed Wind Dir Waves Ship Positions

Kowloon Bay

Last reported at 2018-Jun-28 07:37 UTC. Time now 2018-Jul-23 00:22 UTC.
Position N 23°14' E 117°29'.
Warning: this ship's position is 24 days out of date.

Length 293 m; draft 10.5 m.

Type: Cargo ship. MMSI: 636016204.

Date/timePositionNaut miles runAvg speedWind from/ knotsBaromVisibWave heightAir tempDewpointWater temp
2018-Jun-28 07:37N 23°14' E 117°29'318.7
2018-Jun-28 07:29N 23°16' E 117°31'918.9
2018-Jun-28 07:00N 23°22' E 117°38'1019.2
2018-Jun-28 06:29N 23°30' E 117°44'918.6
2018-Jun-28 06:00N 23°36' E 117°52'918.8
2018-Jun-28 05:30N 23°43' E 117°59'918.5
2018-Jun-28 05:00N 23°49' E 118°06'1019.0
2018-Jun-28 04:30N 23°57' E 118°12'918.4
2018-Jun-28 04:00N 24°04' E 118°19'815.8
2018-Jun-28 03:30N 24°12' E 118°18'713.7
2018-Jun-28 03:00N 24°17' E 118°13'612.0
2018-Jun-28 02:30N 24°21' E 118°09'510.0
2018-Jun-28 02:00N 24°25' E 118°05'5 9.3
2018-Jun-28 01:30N 24°29' E 118°04'2 3.5
2018-Jun-28 00:58N 24°31' E 118°05'0 0.0
2018-Jun-28 00:28N 24°31' E 118°05'0 0.0
2018-Jun-27 23:58N 24°31' E 118°05'0 0.0
2018-Jun-27 23:28N 24°31' E 118°05'0 0.0
2018-Jun-27 22:55N 24°31' E 118°05'0 0.0
2018-Jun-27 22:28N 24°31' E 118°05'0 0.0
2018-Jun-27 21:58N 24°31' E 118°05'0 0.0
2018-Jun-27 21:28N 24°31' E 118°05'0 0.0
2018-Jun-27 20:58N 24°31' E 118°05'0 0.0
2018-Jun-27 20:28N 24°31' E 118°05'0 0.0
2018-Jun-27 19:55N 24°31' E 118°05'0 0.0
2018-Jun-27 19:28N 24°31' E 118°05'0 0.0
2018-Jun-27 18:58N 24°31' E 118°05'0 0.1
2018-Jun-27 18:28N 24°31' E 118°05'0 0.1
2018-Jun-27 17:58N 24°31' E 118°05'0 0.0
2018-Jun-27 17:28N 24°31' E 118°05'0 0.3
2018-Jun-27 17:00N 24°31' E 118°05'2 4.8
2018-Jun-27 16:30N 24°29' E 118°04'510.3
2018-Jun-27 16:00N 24°24' E 118°06'611.3
2018-Jun-27 15:30N 24°20' E 118°10'5 9.1
2018-Jun-27 15:01N 24°17' E 118°14'5 9.9
2018-Jun-27 14:30N 24°13' E 118°17'4 7.9
2018-Jun-27 14:00N 24°11' E 118°21'2 4.9
2018-Jun-27 13:30N 24°13' E 118°23'1 1.3
2018-Jun-27 13:00N 24°12' E 118°23'0 0.6
2018-Jun-27 12:30N 24°12' E 118°23'1 1.9
2018-Jun-27 12:00N 24°12' E 118°24'0 0.8
2018-Jun-27 11:30N 24°12' E 118°24'4 8.6
2018-Jun-27 11:00N 24°13' E 118°28'2 4.6
2018-Jun-27 10:30N 24°14' E 118°30'1 2.6
2018-Jun-27 10:00N 24°13' E 118°29'1 2.3
2018-Jun-27 09:30N 24°12' E 118°28'1 2.0
2018-Jun-27 08:58N 24°12' E 118°28'1 2.0
2018-Jun-27 08:30N 24°11' E 118°27'1 1.7
2018-Jun-27 08:01N 24°11' E 118°26'1 1.7
2018-Jun-27 07:30N 24°10' E 118°25'1 1.3
2018-Jun-27 07:00N 24°10' E 118°24'0 0.9
2018-Jun-27 06:30N 24°10' E 118°24'0 0.7
2018-Jun-27 06:00N 24°10' E 118°23'1 1.0
2018-Jun-27 05:31N 24°11' E 118°23'0 1.0
2018-Jun-27 05:00N 24°11' E 118°23'0 0.4
2018-Jun-27 04:30N 24°11' E 118°22'0 0.4
2018-Jun-27 04:00N 24°11' E 118°22'0 0.2
2018-Jun-27 03:30N 24°10' E 118°22'1 1.0
2018-Jun-27 03:00N 24°11' E 118°23'2 4.3
2018-Jun-27 02:30N 24°09' E 118°24'612.0
2018-Jun-27 02:00N 24°04' E 118°27'612.0
2018-Jun-27 01:30N 23°59' E 118°31'611.9
2018-Jun-27 01:00N 23°55' E 118°36'611.2
2018-Jun-27 00:30N 23°51' E 118°40'611.2
2018-Jun-27 00:00N 23°48' E 118°45'8811.6
2018-Jun-26 16:26N 22°48' E 119°55'611.4
2018-Jun-26 15:52N 22°44' E 120°01'411.0
2018-Jun-26 15:30N 22°42' E 120°04'510.9
2018-Jun-26 15:00N 22°38' E 120°09'510.7
2018-Jun-26 14:30N 22°34' E 120°12'510.2
2018-Jun-26 14:00N 22°33' E 120°18'2 3.0
2018-Jun-26 13:30N 22°34' E 120°19'0 0.0
2018-Jun-26 12:25N 22°34' E 120°19'0 0.0
2018-Jun-26 11:53N 22°34' E 120°19'0 0.0
2018-Jun-26 11:27N 22°34' E 120°19'0 0.0
2018-Jun-26 10:57N 22°34' E 120°19'0 0.0
2018-Jun-26 10:27N 22°34' E 120°19'0 0.0
2018-Jun-26 09:57N 22°34' E 120°19'0 0.0
2018-Jun-26 09:27N 22°34' E 120°19'0 0.0
2018-Jun-26 08:57N 22°34' E 120°19'0 0.0
2018-Jun-26 08:15N 22°34' E 120°19'0 0.0
2018-Jun-26 07:57N 22°34' E 120°19'0 0.0
2018-Jun-26 07:21N 22°34' E 120°19'0 0.0
2018-Jun-26 06:57N 22°34' E 120°19'0 0.0
2018-Jun-26 06:03N 22°34' E 120°19'0 0.0
2018-Jun-26 05:57N 22°34' E 120°19'0 0.0
2018-Jun-26 05:27N 22°34' E 120°19'0 0.0
2018-Jun-26 04:57N 22°34' E 120°19'0 1.0
2018-Jun-26 04:30N 22°33' E 120°19'3 6.6
2018-Jun-26 04:00N 22°33' E 120°16'4 7.8
2018-Jun-26 03:30N 22°32' E 120°11'3 6.2
2018-Jun-26 03:00N 22°29' E 120°09'3 5.6
2018-Jun-26 02:30N 22°27' E 120°08'5 9.3
2018-Jun-26 02:00N 22°22' E 120°07'5 9.8
2018-Jun-26 01:29N 22°17' E 120°07'510.3
2018-Jun-26 01:00N 22°12' E 120°08'610.5
2018-Jun-26 00:27N 22°08' E 120°12'  

Dump ship's entire track history